Molengracht — PCJG — position and weather

sailwx.info

Track history (hours):
 
Tides and Currents Weather Stations Pressure Air Temp Water Temp Dewpoint Dewpoint Depression Visibility Wind Speed Wind Dir Waves Ship Positions

Molengracht

Last reported at 2017-Oct-08 18:44 UTC. Time now 2017-Oct-20 19:54 UTC.
Position N 01°16' E 103°54'.
Warning: this ship's position is 12 days out of date.

Length 143 m; draft 9.1 m.

Type: Cargo ship. MMSI: 246770000.

Date/timePositionNaut miles runAvg speedWind from/ knotsBaromVisibWave heightAir tempDewpointWater temp
2017-Oct-08 18:44N 01°16' E 103°54'0 0.0
2017-Oct-08 18:30N 01°16' E 103°54'0 0.0
2017-Oct-08 17:51N 01°16' E 103°54'0 0.0
2017-Oct-08 17:10N 01°16' E 103°54'0 0.0
2017-Oct-08 16:08N 01°16' E 103°54'0 0.0
2017-Oct-08 15:41N 01°16' E 103°54'0 0.0
2017-Oct-08 15:28N 01°16' E 103°54'0 0.0
2017-Oct-08 15:00N 01°16' E 103°54'0 0.0
2017-Oct-08 14:16N 01°16' E 103°54'0 0.0
2017-Oct-08 12:46N 01°16' E 103°54'10 9.6
2017-Oct-08 11:46N 01°15' E 104°03'414.0
2017-Oct-08 11:30N 01°14' E 103°59'510.0
2017-Oct-08 11:00N 01°15' E 103°54'2 1.9
2017-Oct-08 10:13N 01°16' E 103°54'0 0.4
2017-Oct-08 09:50N 01°16' E 103°53'0 0.4
2017-Oct-08 09:30N 01°16' E 103°54'0 0.0
2017-Oct-08 09:00N 01°16' E 103°54'0 0.8
2017-Oct-08 08:30N 01°16' E 103°54'1 1.3
2017-Oct-08 08:00N 01°15' E 103°54'1 1.8
2017-Oct-08 07:30N 01°14' E 103°55'2 1.0
2017-Oct-08 05:34N 01°16' E 103°54'0 0.0
2017-Oct-08 05:25N 01°16' E 103°54'0 0.0
2017-Oct-08 04:55N 01°16' E 103°54'0 0.1
2017-Oct-08 03:22N 01°16' E 103°53'0 0.1
2017-Oct-08 02:52N 01°16' E 103°53'0 0.1
2017-Oct-08 01:19N 01°16' E 103°54'1 3.1
2017-Oct-08 00:59N 01°15' E 103°54'3 6.6
2017-Oct-08 00:28N 01°15' E 103°57'  
Track history (hours):
 
Tides and Currents Weather Stations Pressure Air Temp Water Temp Dewpoint Dewpoint Depression Visibility Wind Speed Wind Dir Waves Ship Positions

Molengracht

Last reported at 2017-Oct-08 18:44 UTC. Time now 2017-Oct-20 19:54 UTC.
Position N 01°16' E 103°54'.
Warning: this ship's position is 12 days out of date.

Length 143 m; draft 9.1 m.

Type: Cargo ship. MMSI: 246770000.

Date/timePositionNaut miles runAvg speedWind from/ knotsBaromVisibWave heightAir tempDewpointWater temp
2017-Oct-08 18:44N 01°16' E 103°54'0 0.0
2017-Oct-08 18:30N 01°16' E 103°54'0 0.0
2017-Oct-08 17:51N 01°16' E 103°54'0 0.0
2017-Oct-08 17:10N 01°16' E 103°54'0 0.0
2017-Oct-08 16:08N 01°16' E 103°54'0 0.0
2017-Oct-08 15:41N 01°16' E 103°54'0 0.0
2017-Oct-08 15:28N 01°16' E 103°54'0 0.0
2017-Oct-08 15:00N 01°16' E 103°54'0 0.0
2017-Oct-08 14:16N 01°16' E 103°54'0 0.0
2017-Oct-08 12:46N 01°16' E 103°54'10 9.6
2017-Oct-08 11:46N 01°15' E 104°03'414.0
2017-Oct-08 11:30N 01°14' E 103°59'510.0
2017-Oct-08 11:00N 01°15' E 103°54'2 1.9
2017-Oct-08 10:13N 01°16' E 103°54'0 0.4
2017-Oct-08 09:50N 01°16' E 103°53'0 0.4
2017-Oct-08 09:30N 01°16' E 103°54'0 0.0
2017-Oct-08 09:00N 01°16' E 103°54'0 0.8
2017-Oct-08 08:30N 01°16' E 103°54'1 1.3
2017-Oct-08 08:00N 01°15' E 103°54'1 1.8
2017-Oct-08 07:30N 01°14' E 103°55'2 1.0
2017-Oct-08 05:34N 01°16' E 103°54'0 0.0
2017-Oct-08 05:25N 01°16' E 103°54'0 0.0
2017-Oct-08 04:55N 01°16' E 103°54'0 0.1
2017-Oct-08 03:22N 01°16' E 103°53'0 0.1
2017-Oct-08 02:52N 01°16' E 103°53'0 0.1
2017-Oct-08 01:19N 01°16' E 103°54'1 3.1
2017-Oct-08 00:59N 01°15' E 103°54'3 6.6
2017-Oct-08 00:28N 01°15' E 103°57'  

Dump ship's entire track history